Terminal Aerodrome Forecast
Issued by NWS

Home | Current Version | Previous Version | Text Only | Print | Product List | Glossary On
Versions: 1 2 3 4 5 6 7 8 9 10 11 12 13 14
000
FTUS44 KEPZ 191139
TAFDMN
TAF
KDMN 191139Z 1912/2012 27014KT P6SM VCSH SCT080 BKN150
     FM191900 26015G25KT P6SM VCTS SCT060CB BKN110
      TEMPO 1920/1924 3SM TSRA BKN050CB
     FM200300 26010KT P6SM SCT050 BKN140=

USA.gov is the U.S. government's official web portal to all federal, state and local government web resources and services.